Главная страница
METAR-TAF:

METAR-TAF

Аэропорты :

Оденсе, Дания

широта: 55-29N, долгота: 010-20E, высота над уровнем моря: 17 м

Текущие метеонаблюдения

Эта сводка был подготовлена 49 минут назад, в 13:50 UTC
Ветер 8 Узел от северо-восточный, изменяющийся между северный и восточный
Температура 28°C
Влажность 37%
Давление 1020 hPa
Видимость 10 км и более
Нет облачности ниже 1500 м, и нет кучево-дождевой облачности

METAR: EKOD 091350Z 04008KT 360V090 CAVOK 28/12 Q1020

Время: 16:39 (14:39 UTC)

Прогноз

Эта сводка был подготовлена 5 часа и 30 минут назад, в 09:09 UTC
Прогноз действительный с 09-го 09 UTC до 09-го 15 UTC
Ветер 6 Узел от северо-северо-восточный
Видимость 10 км и более
Нет облачности ниже 1500 м, и нет кучево-дождевой облачности

TAF: EKOD 090909Z 0909/0915 02006KT CAVOK

Метеонаблюдения и прогнозы для более 4000 аэропортов (сводки METAR и TAF).

Имеющиеся станции представлены на карте желтыми и красными точками.

Чтобы увидеть название станции, наведите на нее мышь.

Затем щелкните, чтобы увидеть метеонаблюдения и метеопрогнозы.

Управление картой: чтобы увеличить масштаб, щелкните зеленые кнопки с черным крестиком; чтобы уменьшить масштаб, щелкните зеленую кнопку с тире; для просмотра соседних карт щелкайте зеленые стрелки.


METAR-TAF: